Time;durP1;ratioP1;P1;durP2;ratioP2;P2;SDS_P1;SDS_P2;PMS_P1;PMS_P2;Temp;Humidity;BMP_temperature;BMP_pressure;BME280_temperature;BME280_humidity;BME280_pressure;Samples;Min_cycle;Max_cycle;Signal;HPM_P1;HPM_P2
2021/12/06 00:03:09;;;;;;;29.27;14.43;;;1.50;99.90;;;;;;5106685;22;20058;-72
2021/12/06 00:05:36;;;;;;;33.43;15.30;;;1.60;99.90;;;;;;5091322;28;20151;-71
2021/12/06 00:08:04;;;;;;;32.37;15.93;;;1.60;99.90;;;;;;5092269;28;20043;-71
2021/12/06 00:10:31;;;;;;;31.47;15.50;;;1.60;99.90;;;;;;5092018;28;20044;-71
2021/12/06 00:12:59;;;;;;;30.87;15.60;;;1.60;99.90;;;;;;5091841;28;20507;-73
2021/12/06 00:15:30;;;;;;;29.30;14.87;;;1.70;99.90;;;;;;5091914;28;20055;-71
2021/12/06 00:17:58;;;;;;;27.27;14.63;;;1.70;99.90;;;;;;5092373;28;20143;-71
2021/12/06 00:20:26;;;;;;;34.40;15.83;;;1.60;99.90;;;;;;5092086;28;20370;-71
2021/12/06 00:22:53;;;;;;;34.80;15.53;;;1.60;99.90;;;;;;5092107;28;20481;-73
2021/12/06 00:25:21;;;;;;;28.67;15.00;;;1.60;99.90;;;;;;5090993;28;20504;-73
2021/12/06 00:27:49;;;;;;;29.17;15.10;;;1.60;99.90;;;;;;5092501;28;20385;-71
2021/12/06 00:30:16;;;;;;;30.47;14.03;;;1.50;99.90;;;;;;5091786;28;20504;-74
2021/12/06 00:32:44;;;;;;;25.73;14.30;;;1.40;99.90;;;;;;5092115;28;20150;-71
2021/12/06 00:35:18;;;;;;;27.67;14.23;;;1.40;99.90;;;;;;5091480;28;20565;-71
2021/12/06 00:37:56;;;;;;;24.27;13.47;;;1.30;99.90;;;;;;5091826;28;20058;-73
2021/12/06 00:40:24;;;;;;;27.37;14.13;;;1.30;99.90;;;;;;5091717;28;20051;-71
2021/12/06 00:42:52;;;;;;;27.60;13.97;;;1.10;99.90;;;;;;5092017;28;20389;-71
2021/12/06 00:45:19;;;;;;;34.07;15.30;;;1.00;99.90;;;;;;5091353;28;20125;-71
2021/12/06 00:47:47;;;;;;;29.40;14.80;;;1.00;99.90;;;;;;5091619;28;20048;-71
2021/12/06 00:50:16;;;;;;;34.60;15.83;;;0.90;99.90;;;;;;5091786;28;20048;-71
2021/12/06 00:52:43;;;;;;;32.73;16.07;;;0.80;99.90;;;;;;5091684;28;20060;-72
2021/12/06 00:55:13;;;;;;;31.30;14.93;;;0.80;99.90;;;;;;5090853;28;20105;-71
2021/12/06 00:57:41;;;;;;;27.93;15.40;;;0.70;99.90;;;;;;5091466;28;20087;-71
2021/12/06 01:00:12;;;;;;;34.73;15.33;;;0.60;99.90;;;;;;5091328;28;20109;-72
2021/12/06 01:02:39;;;;;;;29.23;15.77;;;0.50;99.90;;;;;;5090896;28;20173;-71
2021/12/06 01:05:07;;;;;;;36.90;16.87;;;0.60;99.90;;;;;;5090838;28;20412;-73
2021/12/06 01:07:34;;;;;;;30.97;15.00;;;0.50;99.90;;;;;;5091600;28;20492;-72
2021/12/06 01:10:01;;;;;;;36.53;16.70;;;0.40;99.90;;;;;;5091452;28;20454;-71
2021/12/06 01:12:30;;;;;;;27.60;15.67;;;0.40;99.90;;;;;;5091715;28;20393;-71
2021/12/06 01:14:57;;;;;;;29.53;14.93;;;0.30;99.90;;;;;;5091078;28;20484;-73
2021/12/06 01:17:24;;;;;;;31.77;16.17;;;0.30;99.90;;;;;;5091418;28;20140;-71
2021/12/06 01:19:51;;;;;;;42.67;17.90;;;0.30;99.90;;;;;;5091321;28;20140;-75
2021/12/06 01:22:26;;;;;;;38.63;17.23;;;0.30;99.90;;;;;;5091309;28;20044;-71
2021/12/06 01:24:58;;;;;;;38.73;16.03;;;0.40;99.90;;;;;;5091126;28;20139;-71
2021/12/06 01:27:50;;;;;;;32.87;16.80;;;0.40;99.90;;;;;;5091858;28;20130;-71
2021/12/06 01:30:35;;;;;;;31.23;15.57;;;0.50;99.90;;;;;;5090994;28;20143;-73
2021/12/06 01:41:17;;;;;;;36.60;16.43;;;0.80;99.90;;;;;;5090971;28;20101;-73
2021/12/06 01:44:05;;;;;;;35.83;15.57;;;0.70;99.90;;;;;;5091042;28;20048;-72
2021/12/06 01:46:35;;;;;;;30.20;16.00;;;0.70;99.90;;;;;;5090241;28;20109;-71
2021/12/06 01:49:02;;;;;;;30.43;15.43;;;0.70;99.90;;;;;;5091006;28;20048;-71
2021/12/06 01:51:31;;;;;;;34.73;16.30;;;0.70;99.90;;;;;;5091450;28;20052;-71
2021/12/06 01:53:58;;;;;;;34.37;14.90;;;0.70;99.90;;;;;;5092508;28;20048;-73
2021/12/06 01:56:25;;;;;;;35.17;16.13;;;0.80;99.90;;;;;;5094459;28;20625;-71
2021/12/06 01:58:53;;;;;;;34.00;16.30;;;0.90;99.90;;;;;;5095178;28;20104;-71
2021/12/06 02:01:20;;;;;;;31.60;16.27;;;0.80;99.90;;;;;;5094933;28;20063;-71
2021/12/06 02:03:48;;;;;;;31.77;15.67;;;0.80;99.90;;;;;;5095223;28;20097;-73
2021/12/06 02:06:16;;;;;;;37.67;16.83;;;0.80;99.90;;;;;;5093831;28;20484;-71
2021/12/06 02:08:43;;;;;;;39.50;17.07;;;0.80;99.90;;;;;;5094234;28;20048;-73
2021/12/06 02:11:11;;;;;;;125.67;22.27;;;0.80;99.90;;;;;;5094386;28;20043;-71
2021/12/06 02:13:45;;;;;;;93.40;19.93;;;0.80;99.90;;;;;;5094445;28;20555;-71
2021/12/06 02:16:12;;;;;;;139.47;21.80;;;0.60;99.90;;;;;;5093621;28;20492;-71
2021/12/06 02:18:45;;;;;;;104.73;20.70;;;0.60;99.90;;;;;;5094525;28;20048;-71
2021/12/06 02:21:17;;;;;;;111.60;22.40;;;0.60;99.90;;;;;;5094823;28;20081;-70
2021/12/06 02:23:45;;;;;;;158.00;22.57;;;0.60;99.90;;;;;;5094846;28;20074;-71
2021/12/06 02:26:13;;;;;;;148.53;21.00;;;0.60;99.90;;;;;;5094367;28;20048;-71
2021/12/06 02:28:40;;;;;;;119.80;23.13;;;0.60;99.90;;;;;;5094423;28;20052;-71
2021/12/06 02:31:07;;;;;;;146.63;23.00;;;0.60;99.90;;;;;;5094255;28;20052;-71
2021/12/06 02:33:34;;;;;;;130.43;23.20;;;0.60;99.90;;;;;;5094197;28;20113;-71
2021/12/06 02:36:01;;;;;;;195.47;25.20;;;0.60;99.90;;;;;;5093560;28;20048;-74
2021/12/06 02:38:29;;;;;;;171.53;22.57;;;0.50;99.90;;;;;;5093892;28;20048;-72
2021/12/06 02:40:57;;;;;;;134.10;21.47;;;0.50;99.90;;;;;;5093543;28;20101;-71
2021/12/06 02:43:24;;;;;;;81.50;18.40;;;0.50;99.90;;;;;;5093843;28;20104;-71
2021/12/06 02:45:51;;;;;;;78.63;19.37;;;0.50;99.90;;;;;;5093377;28;20117;-71
2021/12/06 02:48:18;;;;;;;108.37;19.10;;;0.60;99.90;;;;;;5093688;28;20052;-72
2021/12/06 02:50:49;;;;;;;105.97;21.07;;;0.60;99.90;;;;;;5093842;28;20048;-71
2021/12/06 02:53:17;;;;;;;88.40;18.87;;;0.60;99.90;;;;;;5093946;28;20132;-71
2021/12/06 02:55:51;;;;;;;85.97;19.57;;;0.60;99.90;;;;;;5093064;28;20105;-71
2021/12/06 02:58:43;;;;;;;106.60;21.73;;;0.60;99.90;;;;;;5093959;28;20062;-71
2021/12/06 03:01:17;;;;;;;89.83;18.20;;;0.60;99.90;;;;;;5093121;28;20055;-71
2021/12/06 03:03:44;;;;;;;112.60;22.63;;;0.70;99.90;;;;;;5093226;28;20048;-74
2021/12/06 03:06:13;;;;;;;62.90;17.87;;;0.60;99.90;;;;;;5092930;28;20348;-71
2021/12/06 03:08:45;;;;;;;45.13;16.53;;;0.70;99.90;;;;;;5093317;28;20051;-71
2021/12/06 03:11:17;;;;;;;30.27;14.90;;;0.70;99.90;;;;;;5093424;28;20051;-72
2021/12/06 03:13:44;;;;;;;27.37;14.83;;;0.70;99.90;;;;;;5093038;28;20088;-72
2021/12/06 03:16:12;;;;;;;34.40;15.73;;;0.80;99.90;;;;;;5115189;22;20039;-69
2021/12/06 03:18:43;;;;;;;31.83;15.30;;;0.80;99.90;;;;;;5112744;28;20043;-67
2021/12/06 03:21:10;;;;;;;26.70;14.80;;;0.70;99.90;;;;;;5112563;28;20055;-67
2021/12/06 03:23:37;;;;;;;31.00;14.57;;;0.80;99.90;;;;;;5111650;28;20109;-67
2021/12/06 03:26:05;;;;;;;25.67;14.07;;;0.80;99.90;;;;;;5112246;28;20056;-67
2021/12/06 03:28:37;;;;;;;31.50;14.23;;;0.80;99.90;;;;;;5117142;28;20055;-68
2021/12/06 03:31:06;;;;;;;25.63;13.33;;;0.80;99.90;;;;;;5115789;28;20048;-67
2021/12/06 03:33:34;;;;;;;28.60;14.93;;;0.80;99.90;;;;;;5114350;28;20093;-67
2021/12/06 03:36:02;;;;;;;31.97;14.57;;;0.80;99.90;;;;;;5111104;28;20100;-67
2021/12/06 03:38:29;;;;;;;33.13;14.67;;;0.80;99.90;;;;;;5111373;28;20854;-67
2021/12/06 03:40:56;;;;;;;26.93;13.73;;;0.80;99.90;;;;;;5111749;28;20055;-67
2021/12/06 03:43:23;;;;;;;26.80;13.47;;;0.70;99.90;;;;;;5111393;28;20047;-68
2021/12/06 03:45:52;;;;;;;28.60;14.57;;;0.80;99.90;;;;;;5111038;28;20090;-70
2021/12/06 03:48:19;;;;;;;28.57;14.73;;;0.70;99.90;;;;;;5111301;28;20051;-67
2021/12/06 03:50:46;;;;;;;27.20;14.20;;;0.80;99.90;;;;;;5111139;28;20104;-67
2021/12/06 03:53:14;;;;;;;31.03;14.83;;;0.80;99.90;;;;;;5111012;28;20052;-67
2021/12/06 03:55:41;;;;;;;31.17;14.77;;;0.60;99.90;;;;;;5111084;28;20104;-67
2021/12/06 03:58:08;;;;;;;26.27;13.10;;;0.70;99.90;;;;;;5120423;28;20051;-67
2021/12/06 04:00:35;;;;;;;25.33;13.97;;;0.70;99.90;;;;;;5131756;28;20081;-67
2021/12/06 04:03:04;;;;;;;25.20;13.27;;;0.70;99.90;;;;;;5116302;28;20077;-67
2021/12/06 04:05:31;;;;;;;22.77;12.73;;;0.70;99.90;;;;;;5113335;28;20101;-67
2021/12/06 04:07:58;;;;;;;23.63;12.43;;;0.80;99.90;;;;;;5111346;28;20571;-67
2021/12/06 04:10:26;;;;;;;21.60;12.43;;;0.80;99.90;;;;;;5111141;28;20043;-67
2021/12/06 04:12:55;;;;;;;24.43;12.80;;;0.80;99.90;;;;;;5110641;28;20561;-67
2021/12/06 04:15:23;;;;;;;23.43;12.87;;;0.70;99.90;;;;;;5110190;28;20514;-67
2021/12/06 04:17:50;;;;;;;22.50;12.33;;;0.70;99.90;;;;;;5110179;28;20048;-67
2021/12/06 04:20:19;;;;;;;29.27;14.77;;;0.70;99.90;;;;;;5111052;28;20060;-67
2021/12/06 04:22:46;;;;;;;26.13;13.37;;;0.80;99.90;;;;;;5110904;28;20079;-67
2021/12/06 04:25:15;;;;;;;23.30;12.60;;;0.70;99.90;;;;;;5110200;28;20419;-67
2021/12/06 04:27:42;;;;;;;23.37;13.23;;;0.60;99.90;;;;;;5110722;28;20522;-67
2021/12/06 04:30:12;;;;;;;26.67;14.30;;;0.60;99.90;;;;;;5110467;28;20132;-67
2021/12/06 04:32:39;;;;;;;23.83;12.67;;;0.60;99.90;;;;;;5110857;28;20108;-67
2021/12/06 04:35:08;;;;;;;24.07;13.80;;;0.60;99.90;;;;;;5109926;28;20491;-67
2021/12/06 04:37:36;;;;;;;30.43;14.47;;;0.70;99.90;;;;;;5110678;28;20473;-67
2021/12/06 04:40:04;;;;;;;27.47;14.57;;;0.70;99.90;;;;;;5110419;28;20051;-67
2021/12/06 04:42:32;;;;;;;26.70;13.80;;;0.60;99.90;;;;;;5110506;28;20117;-68
2021/12/06 04:44:59;;;;;;;24.03;13.13;;;0.60;99.90;;;;;;5109709;28;20043;-67
2021/12/06 04:47:26;;;;;;;26.67;13.47;;;0.70;99.90;;;;;;5110682;28;20051;-67
2021/12/06 04:49:53;;;;;;;26.20;13.30;;;0.70;99.90;;;;;;5110042;28;20140;-67
2021/12/06 04:52:20;;;;;;;27.10;14.30;;;0.70;99.90;;;;;;5110443;28;20101;-67
2021/12/06 04:54:53;;;;;;;23.77;12.73;;;0.70;99.90;;;;;;5109729;28;20047;-67
2021/12/06 04:57:24;;;;;;;24.93;12.47;;;0.70;99.90;;;;;;5110862;28;20055;-69
2021/12/06 04:59:55;;;;;;;25.33;12.10;;;0.70;99.90;;;;;;5110129;28;20487;-67
2021/12/06 05:02:25;;;;;;;28.07;13.17;;;0.80;99.90;;;;;;5110335;28;20453;-67
2021/12/06 05:04:55;;;;;;;26.63;13.10;;;0.80;99.90;;;;;;5109425;28;20086;-67
2021/12/06 05:07:25;;;;;;;32.10;13.73;;;0.90;99.90;;;;;;5109731;28;20047;-67
2021/12/06 05:09:54;;;;;;;24.73;12.93;;;0.90;99.90;;;;;;5109377;28;20079;-67
2021/12/06 05:12:24;;;;;;;29.40;13.87;;;0.90;99.90;;;;;;5109586;28;20503;-67
2021/12/06 05:14:51;;;;;;;29.73;14.40;;;0.90;99.90;;;;;;5108999;28;20502;-67
2021/12/06 05:17:19;;;;;;;40.13;14.87;;;0.90;99.90;;;;;;5109792;28;20219;-67
2021/12/06 05:19:46;;;;;;;26.73;13.83;;;0.90;99.90;;;;;;5109624;28;20104;-68
2021/12/06 05:22:14;;;;;;;25.63;13.27;;;0.90;99.90;;;;;;5110231;28;20054;-68
2021/12/06 05:24:41;;;;;;;26.93;13.77;;;0.80;99.90;;;;;;5109878;28;20491;-67
2021/12/06 05:27:09;;;;;;;28.17;13.13;;;0.80;99.90;;;;;;5109899;28;20495;-67
2021/12/06 05:29:37;;;;;;;29.53;14.47;;;0.80;99.90;;;;;;5112043;28;20044;-67
2021/12/06 05:32:05;;;;;;;31.77;15.40;;;0.80;99.90;;;;;;5113913;28;20051;-67
2021/12/06 05:34:38;;;;;;;28.27;14.37;;;0.90;99.90;;;;;;5113845;28;20056;-66
2021/12/06 05:37:06;;;;;;;27.50;13.37;;;0.90;99.90;;;;;;5113523;28;20138;-67
2021/12/06 05:39:34;;;;;;;28.67;14.23;;;0.90;99.90;;;;;;5113541;28;20558;-69
2021/12/06 05:42:04;;;;;;;26.47;13.13;;;0.80;99.90;;;;;;5113734;28;20097;-67
2021/12/06 05:44:32;;;;;;;31.67;12.93;;;0.70;99.90;;;;;;5113440;28;20043;-67
2021/12/06 05:47:01;;;;;;;31.87;14.77;;;0.80;99.90;;;;;;5113241;28;20052;-67
2021/12/06 05:49:28;;;;;;;27.53;13.77;;;0.80;99.90;;;;;;5113574;28;20079;-67
2021/12/06 05:51:56;;;;;;;29.13;15.13;;;0.90;99.90;;;;;;5113297;28;20043;-67
2021/12/06 05:54:24;;;;;;;25.33;13.47;;;0.90;99.90;;;;;;5113257;28;20483;-67
2021/12/06 05:56:51;;;;;;;26.10;13.70;;;0.80;99.90;;;;;;5113039;28;20051;-67
2021/12/06 05:59:19;;;;;;;26.90;13.37;;;0.80;99.90;;;;;;5113325;28;20104;-67
2021/12/06 06:01:49;;;;;;;27.23;14.13;;;0.80;99.90;;;;;;5113415;28;20072;-67
2021/12/06 06:04:16;;;;;;;25.27;12.93;;;0.80;99.90;;;;;;5113140;28;20059;-67
2021/12/06 06:06:43;;;;;;;22.90;12.50;;;0.90;99.90;;;;;;5112682;28;20075;-67
2021/12/06 06:09:10;;;;;;;25.33;12.10;;;0.80;99.90;;;;;;5113127;28;20051;-67
2021/12/06 06:11:37;;;;;;;24.20;14.30;;;0.80;99.90;;;;;;5113239;28;20396;-67
2021/12/06 06:14:05;;;;;;;25.70;13.87;;;0.80;99.90;;;;;;5112828;28;20075;-67
2021/12/06 06:16:36;;;;;;;26.10;13.30;;;0.70;99.90;;;;;;5112849;28;20492;-67
2021/12/06 06:19:05;;;;;;;28.60;13.47;;;0.70;99.90;;;;;;5118725;28;20058;-67
2021/12/06 06:21:32;;;;;;;22.67;12.10;;;0.70;99.90;;;;;;5135445;28;20077;-67
2021/12/06 06:23:59;;;;;;;29.00;14.40;;;0.70;99.90;;;;;;5134952;28;20047;-66
2021/12/06 06:26:26;;;;;;;27.13;12.43;;;0.70;99.90;;;;;;5124377;28;20051;-67
2021/12/06 06:28:53;;;;;;;30.07;13.93;;;0.70;99.90;;;;;;5113167;28;20497;-67
2021/12/06 06:31:21;;;;;;;26.07;13.27;;;0.60;99.90;;;;;;5112424;28;20044;-67
2021/12/06 06:33:47;;;;;;;30.87;14.90;;;0.60;99.90;;;;;;5112893;28;20066;-67
2021/12/06 06:36:16;;;;;;;28.20;14.07;;;0.70;99.90;;;;;;5111887;28;20056;-67
2021/12/06 06:38:43;;;;;;;26.17;13.83;;;0.60;99.90;;;;;;5112426;28;20051;-69
2021/12/06 06:41:10;;;;;;;27.23;14.07;;;0.70;99.90;;;;;;5113640;28;20063;-67
2021/12/06 06:43:38;;;;;;;30.70;15.47;;;0.70;99.90;;;;;;5116433;28;20226;-67
2021/12/06 06:46:06;;;;;;;26.63;14.17;;;0.70;99.90;;;;;;5114314;28;20055;-67
2021/12/06 06:48:33;;;;;;;35.17;14.53;;;0.60;99.90;;;;;;5115870;28;20051;-67
2021/12/06 06:51:00;;;;;;;29.47;14.73;;;0.60;99.90;;;;;;5115425;28;20077;-67
2021/12/06 06:53:29;;;;;;;31.00;14.87;;;0.70;99.90;;;;;;5115499;28;20097;-67
2021/12/06 06:55:56;;;;;;;26.43;14.00;;;0.70;99.90;;;;;;5115577;28;20154;-67
2021/12/06 06:58:24;;;;;;;32.83;15.33;;;0.70;99.90;;;;;;5116150;28;20051;-67
2021/12/06 07:00:52;;;;;;;30.13;15.67;;;0.70;99.90;;;;;;5115881;28;20093;-67
2021/12/06 07:03:19;;;;;;;32.77;14.90;;;0.70;99.90;;;;;;5117783;28;20054;-67
2021/12/06 07:05:46;;;;;;;33.67;15.27;;;0.70;99.90;;;;;;5112080;28;20059;-67
2021/12/06 07:08:13;;;;;;;29.90;15.37;;;0.70;99.90;;;;;;5134315;28;20059;-67
2021/12/06 07:10:41;;;;;;;32.53;16.30;;;0.70;99.90;;;;;;5121846;28;20047;-67
2021/12/06 07:13:11;;;;;;;29.27;15.77;;;0.70;99.90;;;;;;5112549;28;20407;-67
2021/12/06 07:15:39;;;;;;;38.30;15.83;;;0.80;99.90;;;;;;5111123;28;20063;-67
2021/12/06 07:18:07;;;;;;;34.70;15.80;;;0.70;99.90;;;;;;5111962;28;20082;-67
2021/12/06 07:20:34;;;;;;;34.33;16.27;;;0.70;99.90;;;;;;5111480;28;20108;-67
2021/12/06 07:23:03;;;;;;;33.07;15.83;;;0.80;99.90;;;;;;5111798;28;20071;-67
2021/12/06 07:25:31;;;;;;;34.03;14.90;;;0.90;99.90;;;;;;5110987;28;20062;-66
2021/12/06 07:28:01;;;;;;;42.97;16.27;;;1.00;99.90;;;;;;5111968;28;20052;-67
2021/12/06 07:30:29;;;;;;;40.37;16.20;;;1.10;99.90;;;;;;5113050;28;20488;-67
2021/12/06 07:32:56;;;;;;;34.93;15.97;;;1.00;99.90;;;;;;5111955;28;20047;-67
2021/12/06 07:35:25;;;;;;;35.00;15.37;;;1.10;99.90;;;;;;5111052;28;20059;-68
2021/12/06 07:37:53;;;;;;;34.37;16.30;;;1.10;99.90;;;;;;5111128;28;20531;-68
2021/12/06 07:40:20;;;;;;;40.57;17.03;;;1.20;99.90;;;;;;5110454;28;20495;-68
2021/12/06 07:42:49;;;;;;;31.27;15.53;;;1.20;99.90;;;;;;5111025;28;20047;-68
2021/12/06 07:45:18;;;;;;;47.60;18.80;;;1.20;99.90;;;;;;5110114;28;20039;-68
2021/12/06 07:47:45;;;;;;;44.20;18.50;;;1.10;99.90;;;;;;5111037;28;20079;-68
2021/12/06 07:50:15;;;;;;;44.70;19.57;;;1.10;99.90;;;;;;5110592;28;20057;-68
2021/12/06 07:52:43;;;;;;;43.93;19.07;;;1.10;99.90;;;;;;5109758;28;20051;-68
2021/12/06 07:55:13;;;;;;;42.87;18.47;;;1.10;99.90;;;;;;5110216;28;20048;-68
2021/12/06 07:57:41;;;;;;;39.23;16.27;;;1.00;99.90;;;;;;5110440;28;20048;-68
2021/12/06 08:00:11;;;;;;;42.33;19.57;;;1.10;99.90;;;;;;5110735;28;20051;-68
2021/12/06 08:02:40;;;;;;;40.67;17.07;;;1.10;99.90;;;;;;5110893;28;20047;-68
2021/12/06 08:07:53;;;;;;;40.63;19.47;;;1.30;99.90;;;;;;5110493;28;20050;-68
2021/12/06 08:10:20;;;;;;;47.33;21.00;;;1.40;99.90;;;;;;5110517;28;20108;-68
2021/12/06 08:12:47;;;;;;;50.00;18.63;;;1.50;99.90;;;;;;5111063;28;20043;-68
2021/12/06 08:15:15;;;;;;;42.80;18.40;;;1.40;99.90;;;;;;5119525;28;20057;-69
2021/12/06 08:17:43;;;;;;;49.63;20.10;;;1.40;99.90;;;;;;5134254;28;20107;-69
2021/12/06 08:20:11;;;;;;;43.50;19.03;;;1.50;99.90;;;;;;5133034;28;20047;-69
2021/12/06 08:22:39;;;;;;;37.93;18.40;;;1.50;99.90;;;;;;5117047;28;20411;-68
2021/12/06 08:25:08;;;;;;;40.93;19.73;;;1.60;99.90;;;;;;5109703;28;20075;-69
2021/12/06 08:27:35;;;;;;;45.00;19.40;;;1.50;99.90;;;;;;5110042;28;20087;-68
2021/12/06 08:30:03;;;;;;;41.17;18.53;;;1.60;99.90;;;;;;5110292;28;20495;-68
2021/12/06 08:32:30;;;;;;;39.87;18.70;;;1.60;99.90;;;;;;5109959;28;20140;-68
2021/12/06 08:34:58;;;;;;;40.67;18.63;;;1.50;99.90;;;;;;5110087;28;20484;-68
2021/12/06 08:37:26;;;;;;;39.87;18.80;;;1.60;99.90;;;;;;5109832;28;20083;-68
2021/12/06 08:39:53;;;;;;;42.80;17.57;;;1.60;99.90;;;;;;5110221;28;20096;-68
2021/12/06 08:42:20;;;;;;;40.13;17.57;;;1.60;99.90;;;;;;5109733;28;20051;-68
2021/12/06 08:44:48;;;;;;;41.40;18.87;;;1.50;99.90;;;;;;5109264;28;20051;-68
2021/12/06 08:47:16;;;;;;;40.43;17.17;;;1.60;99.90;;;;;;5109263;28;20496;-68
2021/12/06 08:49:44;;;;;;;37.10;16.77;;;1.70;99.90;;;;;;5109955;28;20692;-68
2021/12/06 08:52:14;;;;;;;37.80;17.53;;;1.70;99.90;;;;;;5110296;28;20142;-68
2021/12/06 08:54:42;;;;;;;32.33;16.80;;;1.70;99.90;;;;;;5110437;28;20048;-68
2021/12/06 08:57:09;;;;;;;39.30;18.00;;;1.80;99.90;;;;;;5110456;28;20073;-68
2021/12/06 08:59:37;;;;;;;30.73;16.73;;;1.70;99.90;;;;;;5109494;28;20100;-68
2021/12/06 09:02:04;;;;;;;35.40;18.10;;;1.80;99.90;;;;;;5109921;28;20079;-68
2021/12/06 09:04:34;;;;;;;34.13;16.80;;;1.90;99.90;;;;;;5114198;28;20047;-69
2021/12/06 09:07:02;;;;;;;31.47;16.63;;;2.00;99.90;;;;;;5113839;28;20511;-68
2021/12/06 09:09:30;;;;;;;32.60;16.70;;;1.90;99.90;;;;;;5114688;28;20471;-68
2021/12/06 09:11:58;;;;;;;29.33;16.77;;;2.00;99.90;;;;;;5113691;28;20274;-68
2021/12/06 09:14:27;;;;;;;32.93;16.27;;;2.10;99.90;;;;;;5114034;28;20047;-69
2021/12/06 20:11:41;;;;;;;36.67;17.83;;;1.30;99.90;;;;;;5098014;28;20039;-92
2021/12/06 20:14:10;;;;;;;34.23;16.90;;;1.40;99.90;;;;;;5009105;28;20478;-69
2021/12/06 20:16:37;;;;;;;38.37;19.53;;;1.60;99.90;;;;;;5011395;28;20057;-70
2021/12/06 20:19:04;;;;;;;44.10;20.23;;;1.50;99.90;;;;;;5012061;28;20050;-69
2021/12/06 20:21:31;;;;;;;41.13;18.53;;;1.50;99.90;;;;;;5012124;28;20080;-70
2021/12/06 20:23:58;;;;;;;35.07;17.20;;;1.50;99.90;;;;;;5011635;28;20104;-69
2021/12/06 20:26:26;;;;;;;36.43;18.57;;;1.60;99.90;;;;;;5011070;28;20065;-70
2021/12/06 20:28:58;;;;;;;38.13;19.33;;;1.60;99.90;;;;;;5011940;28;20195;-69
2021/12/06 20:31:27;;;;;;;34.30;17.00;;;1.70;99.90;;;;;;5011329;28;20145;-72
2021/12/06 20:33:54;;;;;;;36.57;17.97;;;1.70;99.90;;;;;;5011762;28;20494;-69
2021/12/06 20:36:22;;;;;;;38.00;18.17;;;1.70;99.90;;;;;;5010576;28;20082;-69
2021/12/06 20:38:49;;;;;;;36.07;18.17;;;1.70;99.90;;;;;;5011819;28;20120;-70
2021/12/06 20:41:17;;;;;;;32.83;16.50;;;1.60;99.90;;;;;;5011465;28;20058;-70
2021/12/06 20:43:44;;;;;;;33.57;16.93;;;1.60;99.90;;;;;;5011960;28;20041;-70
2021/12/06 20:46:12;;;;;;;37.63;17.43;;;1.60;99.90;;;;;;5010765;28;20050;-69
2021/12/06 20:48:42;;;;;;;31.20;16.50;;;1.60;99.90;;;;;;5011480;28;20054;-69
2021/12/06 20:51:11;;;;;;;35.00;17.40;;;1.60;99.90;;;;;;5011184;28;20593;-69
2021/12/06 20:53:39;;;;;;;37.70;18.97;;;1.70;99.90;;;;;;5010685;28;20481;-69
2021/12/06 20:56:08;;;;;;;36.00;17.63;;;1.70;99.90;;;;;;5010096;28;20116;-70
2021/12/06 20:58:36;;;;;;;37.27;19.10;;;1.80;99.90;;;;;;5012054;28;20045;-70
2021/12/06 21:01:06;;;;;;;39.57;17.97;;;1.70;99.90;;;;;;5011322;28;20054;-69
2021/12/06 21:03:33;;;;;;;35.93;17.00;;;1.70;99.90;;;;;;5010834;28;20435;-70
2021/12/06 21:06:03;;;;;;;36.23;17.43;;;1.60;99.90;;;;;;5010701;28;20046;-69
2021/12/06 21:08:32;;;;;;;34.70;16.70;;;1.60;99.90;;;;;;5011397;28;20081;-69
2021/12/06 21:11:12;;;;;;;36.17;17.73;;;1.60;99.90;;;;;;5011636;28;20061;-70
2021/12/06 21:13:56;;;;;;;30.77;16.23;;;1.60;99.90;;;;;;5011254;28;20498;-70
2021/12/06 21:16:27;;;;;;;33.43;16.33;;;1.60;99.90;;;;;;5035269;22;20041;-67
2021/12/06 21:18:55;;;;;;;31.70;16.27;;;1.60;99.90;;;;;;5068957;28;20059;-67
2021/12/06 21:21:24;;;;;;;32.10;15.10;;;1.60;99.90;;;;;;5068776;28;20091;-66
2021/12/06 21:23:51;;;;;;;34.33;17.10;;;1.50;99.90;;;;;;5068997;28;20049;-66
2021/12/06 21:26:19;;;;;;;33.30;16.40;;;1.50;99.90;;;;;;5067937;28;20458;-67
2021/12/06 21:28:46;;;;;;;38.30;17.10;;;1.50;99.90;;;;;;5068964;28;20064;-67
2021/12/06 21:31:13;;;;;;;35.60;18.23;;;1.40;99.90;;;;;;5068337;28;20048;-67
2021/12/06 21:33:40;;;;;;;38.70;18.57;;;1.50;99.90;;;;;;5068355;28;20049;-67
2021/12/06 21:36:07;;;;;;;39.83;17.20;;;1.40;99.90;;;;;;5068800;28;20508;-67
2021/12/06 21:38:35;;;;;;;37.97;18.40;;;1.40;99.90;;;;;;5090660;28;20049;-67
2021/12/06 21:41:02;;;;;;;37.80;17.37;;;1.50;99.90;;;;;;5090178;28;20083;-67
2021/12/06 21:43:29;;;;;;;34.20;16.50;;;1.40;99.90;;;;;;5086511;28;20052;-67
2021/12/06 21:45:56;;;;;;;36.03;17.33;;;1.50;99.90;;;;;;5072513;28;20056;-67
2021/12/06 21:48:23;;;;;;;35.03;18.53;;;1.60;99.90;;;;;;5068539;28;20106;-67
2021/12/06 21:50:55;;;;;;;39.40;18.43;;;1.60;99.90;;;;;;5068781;28;20076;-67
2021/12/06 21:53:23;;;;;;;36.93;18.17;;;1.60;99.90;;;;;;5069001;28;20063;-66
2021/12/06 21:55:51;;;;;;;36.47;17.33;;;1.60;99.90;;;;;;5067656;28;20049;-66
2021/12/06 21:58:19;;;;;;;42.67;18.10;;;1.60;99.90;;;;;;5068579;28;20102;-67
2021/12/06 22:00:51;;;;;;;41.40;18.00;;;1.60;99.90;;;;;;5068266;28;20065;-67
2021/12/06 22:03:25;;;;;;;38.53;17.40;;;1.60;99.90;;;;;;5068524;28;20051;-66
2021/12/06 22:05:53;;;;;;;36.30;16.80;;;1.50;99.90;;;;;;5067815;28;20403;-67
2021/12/06 22:08:20;;;;;;;36.50;18.43;;;1.50;99.90;;;;;;5068538;28;20048;-66
2021/12/06 22:10:47;;;;;;;36.67;19.17;;;1.40;99.90;;;;;;5069365;28;20088;-67
2021/12/06 22:13:16;;;;;;;38.50;17.20;;;1.30;99.90;;;;;;5071833;28;20045;-67
2021/12/06 22:15:43;;;;;;;41.87;18.70;;;1.30;99.90;;;;;;5070482;28;20118;-67
2021/12/06 22:18:10;;;;;;;39.27;18.93;;;1.20;99.90;;;;;;5071520;28;20114;-67
2021/12/06 22:20:37;;;;;;;40.50;18.90;;;1.10;99.90;;;;;;5071228;28;20106;-66
2021/12/06 22:23:05;;;;;;;44.10;19.23;;;1.10;99.90;;;;;;5071024;28;20496;-66
2021/12/06 22:25:32;;;;;;;37.70;17.60;;;1.10;99.90;;;;;;5070456;28;20190;-66
2021/12/06 22:27:59;;;;;;;42.93;19.93;;;1.10;99.90;;;;;;5071427;28;20075;-66
2021/12/06 22:30:29;;;;;;;45.17;18.57;;;1.00;99.90;;;;;;5071338;28;20102;-67
2021/12/06 22:32:59;;;;;;;46.70;20.27;;;1.00;99.90;;;;;;5071427;28;20489;-66
2021/12/06 22:35:27;;;;;;;46.27;20.77;;;1.00;99.90;;;;;;5070320;28;20048;-66
2021/12/06 22:37:55;;;;;;;54.37;20.30;;;1.00;99.90;;;;;;5071438;28;20573;-66
2021/12/06 22:40:25;;;;;;;47.53;20.03;;;1.00;99.90;;;;;;5071212;28;20049;-67
2021/12/06 22:42:52;;;;;;;45.30;19.43;;;0.90;99.90;;;;;;5071401;28;20504;-66
2021/12/06 22:45:19;;;;;;;43.63;20.40;;;0.90;99.90;;;;;;5070442;28;20048;-66
2021/12/06 22:47:47;;;;;;;50.03;20.07;;;1.00;99.90;;;;;;5070945;28;20570;-66
2021/12/06 22:50:17;;;;;;;47.40;19.47;;;0.90;99.90;;;;;;5071265;28;20443;-67
2021/12/06 22:52:44;;;;;;;54.10;21.47;;;0.90;99.90;;;;;;5071130;28;20154;-66
2021/12/06 22:55:11;;;;;;;43.20;18.90;;;0.90;99.90;;;;;;5070496;28;20048;-66
2021/12/06 22:57:39;;;;;;;46.27;20.23;;;0.90;99.90;;;;;;5070545;28;20056;-66
2021/12/06 23:00:35;;;;;;;42.33;20.20;;;0.90;99.90;;;;;;5071731;28;20059;-67
2021/12/06 23:03:06;;;;;;;48.87;20.67;;;0.90;99.90;;;;;;5071645;28;20088;-66
2021/12/06 23:05:33;;;;;;;47.80;21.43;;;0.80;99.90;;;;;;5071090;28;20117;-66
2021/12/06 23:08:01;;;;;;;40.03;18.67;;;0.90;99.90;;;;;;5071077;28;20563;-66
2021/12/06 23:10:29;;;;;;;44.67;20.77;;;0.90;99.90;;;;;;5071463;28;20114;-66
2021/12/06 23:12:57;;;;;;;45.53;20.20;;;0.90;99.90;;;;;;5071240;28;20049;-67
2021/12/06 23:15:27;;;;;;;46.20;20.17;;;0.90;99.90;;;;;;5070929;28;20052;-66
2021/12/06 23:17:54;;;;;;;43.17;19.83;;;0.90;99.90;;;;;;5071481;28;20052;-66
2021/12/06 23:20:22;;;;;;;44.00;20.20;;;0.90;99.90;;;;;;5071300;28;20048;-66
2021/12/06 23:22:49;;;;;;;43.07;20.20;;;0.90;99.90;;;;;;5071174;28;20114;-69
2021/12/06 23:25:17;;;;;;;47.20;20.50;;;1.00;99.90;;;;;;5071054;28;20048;-67
2021/12/06 23:27:47;;;;;;;43.30;20.20;;;0.90;99.90;;;;;;5071060;28;20048;-67
2021/12/06 23:30:17;;;;;;;45.10;19.00;;;0.90;99.90;;;;;;5070996;28;20080;-67
2021/12/06 23:32:47;;;;;;;45.33;19.83;;;1.00;99.90;;;;;;5070615;28;20080;-67
2021/12/06 23:35:19;;;;;;;41.17;19.30;;;1.00;99.90;;;;;;5070037;28;20048;-67
2021/12/06 23:37:54;;;;;;;42.80;20.00;;;1.00;99.90;;;;;;5070676;28;20052;-67
2021/12/06 23:40:36;;;;;;;44.17;19.03;;;1.00;99.90;;;;;;5070744;28;20523;-67
2021/12/06 23:48:33;;;;;;;42.10;18.73;;;1.00;99.90;;;;;;5070554;28;20125;-67
2021/12/06 23:50:59;;;;;;;45.80;19.60;;;1.00;99.90;;;;;;5070653;28;20485;-67
2021/12/06 23:53:28;;;;;;;47.73;21.17;;;1.00;99.90;;;;;;5070146;28;20138;-67
2021/12/06 23:55:56;;;;;;;44.27;19.73;;;0.90;99.90;;;;;;5069715;28;20097;-67